Saturday, December 16, 2017, 9:16 PM EST
Back to Local

KAOO, Altoona-blair County Airport

Location: Martinsburg, PA, United States Lat: 40.3
Local Time: 9:16 PM EST ( 2:16 GMT) Lon: -78.317
Time Zone: US/Eastern Elev: 1502 ft

Show me the last for .
Show Decoded

2017-12-16 20:53 METAR KAOO 170153Z AUTO 24005KT 10SM CLR 03/M04 A3010 RMK AO2 SLP208 T00331039 =
2017-12-16 19:53 METAR KAOO 170053Z AUTO 00000KT 10SM CLR 03/M04 A3010 RMK AO2 SLP207 T00281039 =
2017-12-16 18:53 METAR KAOO 162353Z AUTO 19003KT 10SM CLR 03/M04 A3009 RMK AO2 SLP203 T00281044
                 10039 20017 53031 =
2017-12-16 17:53 METAR KAOO 162253Z AUTO 26005KT 10SM CLR 03/M04 A3005 RMK AO2 SLP191 T00281039 =
2017-12-16 16:53 METAR KAOO 162153Z AUTO 27010KT 10SM BKN120 03/M03 A3001 RMK AO2 SLP178
                 T00331033 =
2017-12-16 15:53 METAR KAOO 162053Z AUTO 26011KT 10SM SCT046 BKN120 04/M03 A2999 RMK AO2 SLP170
                 T00391033 51005 =
2017-12-16 14:53 METAR KAOO 161953Z AUTO 26014G19KT 10SM SCT041 BKN095 04/M03 A2999 RMK AO2
                 SLP169 T00391033 =
2017-12-16 13:53 METAR KAOO 161853Z AUTO 26018G23KT 10SM BKN038 BKN075 04/M03 A2998 RMK AO2
                 SLP167 T00391033 =
2017-12-16 12:53 METAR KAOO 161753Z AUTO 27015G24KT 10SM BKN037 04/M03 A2997 RMK AO2 PK WND
                 27026/1658 SLP164 60000 T00391033 10039 21011 58006 =
2017-12-16 11:53 METAR KAOO 161653Z AUTO 26015G23KT 10SM BKN042 BKN090 OVC120 04/M04 A2999 RMK
                 AO2 SLP168 T00391044 =
2017-12-16 10:53 METAR KAOO 161553Z AUTO 26011KT 10SM FEW040 03/M04 A2999 RMK AO2 SLP172
                 T00281044 =
2017-12-16 09:53 METAR KAOO 161453Z AUTO 26018KT 10SM FEW027 BKN044 OVC050 02/M04 A2999 RMK AO2
                 PK WND 28026/1442 SNE06 SLP173 P0000 60000 T00171039 50009 =
2017-12-16 09:43 METAR KAOO 161443Z AUTO 27017G26KT 10SM SCT027 SCT033 OVC041 01/M04 A3000 RMK
                 AO2 PK WND 28026/1442 SNE06 P0000 T00111039 =
2017-12-16 08:53 METAR KAOO 161353Z AUTO 26015KT 7SM -SN BKN029 OVC043 00/M04 A3001 RMK AO2
                 SNE02B49 SLP178 P0000 T00001044 =
2017-12-16 08:21 METAR KAOO 161321Z AUTO 27017KT 9SM BKN028 OVC037 M01/M05 A2999 RMK AO2 SNE02
                 P0000 T10061050 =
2017-12-16 08:08 METAR KAOO 161308Z AUTO 26017KT 10SM SCT028 OVC041 M01/M06 A2999 RMK AO2 SNE02
                 P0000 T10061056 =
2017-12-16 07:53 METAR KAOO 161253Z AUTO 26015KT 8SM -SN BKN028 OVC041 M01/M06 A2998 RMK AO2 PK
                 WND 28026/1235 SNB38 SLP171 P0000 T10061056 =
2017-12-16 07:21 METAR KAOO 161221Z AUTO 26015KT 10SM BKN028 BKN041 OVC055 M01/M07 A2997 RMK AO2
                 T10061067 =
2017-12-16 06:53 METAR KAOO 161153Z AUTO 26017G23KT 10SM SCT032 BKN039 OVC047 M01/M07 A2996 RMK
                 AO2 SLP165 T10111072 11011 21028 53005 =
2017-12-16 05:53 METAR KAOO 161053Z AUTO 26017KT 10SM CLR M02/M08 A2995 RMK AO2 SLP159 T10171083
                 =
2017-12-16 04:53 METAR KAOO 160953Z AUTO 26016KT 10SM CLR M03/M09 A2994 RMK AO2 PK WND 27027/0929
                 SLP157 T10281089 =
2017-12-16 03:53 METAR KAOO 160853Z AUTO 27017KT 10SM BKN055 M02/M09 A2995 RMK AO2 PK WND
                 26026/0813 SLP161 T10221089 56001 =
2017-12-16 02:53 METAR KAOO 160753Z AUTO 27016KT 10SM SCT035 BKN042 BKN050 M03/M09 A2996 RMK AO2
                 PK WND 26031/0658 SLP164 T10281089 =
2017-12-16 01:53 METAR KAOO 160653Z AUTO 27016G22KT 10SM OVC048 M02/M10 A2994 RMK AO2 SLP158
                 T10221100 =
2017-12-16 00:53 METAR KAOO 160553Z AUTO 27015G32KT 7SM BKN039 OVC048 M03/M09 A2995 RMK AO2 PK
                 WND 29032/0546 SNE0459B37E51 SLP163 P0000 60000 T10281094 11028 21039 51023 =
2017-12-16 00:00 METAR KAOO 160500Z AUTO 28021G33KT 4SM HZ FEW027 BKN037 OVC043 M03/M09 A2994 RMK
                 AO2 SNE0459 P0000 T10281094 =
2017-12-15 23:53 METAR KAOO 160453Z AUTO 28022G37KT 1 3/4SM -SN FEW019 FEW027 OVC037 M03/M08
                 A2994 RMK AO2 PK WND 32037/0444 VIS 3/4V3 UPB50E51SNB0354E50B51 SLP157 P0000
                 T10281083 410281128 =
2017-12-15 23:49 METAR KAOO 160449Z AUTO 29022G37KT 2 1/2SM -SN FEW021 SCT025 OVC036 M03/M08
                 A2993 RMK AO2 PK WND 32037/0444 VIS 1 1/4V5 SNB0354 P0000 =
2017-12-15 23:44 METAR KAOO 160444Z AUTO 30024G37KT 5SM -SN BKN025 OVC035 M03/M08 A2994 RMK AO2
                 PK WND 32037/0444 SNB0354 P0000 T10281078 =
2017-12-15 23:28 METAR KAOO 160428Z AUTO 29013G22KT 2 1/2SM -SN BKN024 BKN028 OVC033 M03/M08
                 A2993 RMK AO2 PK WND 27026/0355 VIS 1 1/4V5 SNB0354 P0000 T10281078 =
2017-12-15 22:53 METAR KAOO 160353Z AUTO 28019KT 9SM BKN039 OVC048 M03/M08 A2991 RMK AO2 PK WND
                 28032/0304 SNB10E38 SLP148 P0000 T10281083 =
2017-12-15 22:30 METAR KAOO 160330Z AUTO 28018G25KT 3SM -SN SCT025 BKN036 OVC050 M03/M08 A2990
                 RMK AO2 PK WND 28032/0304 SNB10 P0000 T10331078 =
2017-12-15 22:22 METAR KAOO 160322Z AUTO 27020KT 1 3/4SM -SN SCT025 BKN036 OVC055 M03/M07 A2990
                 RMK AO2 PK WND 28032/0304 SNB10 P0000 T10331072 =
2017-12-15 21:53 METAR KAOO 160253Z AUTO 28022G33KT 8SM SCT033 BKN055 M03/M08 A2988 RMK AO2 PK
                 WND 26036/0224 SNE0158 SLP139 P0000 60000 T10281083 52009 =

Support USWX by starting your Amazon purchase here.